Airfield :
LOGIN :

Register | Disclaimer

   EN    FR    IT 

 










Legend :    VFR   Marginal VFR   IFR   Intensive IFR   Very Intensive IFR
Visi :
Ceiling :
>= 8 km
>= 3000ft
5 to 8 km
1000 to 3000 ft
1500m to 5 km
500 to 1000 ft
800 to 1500m
200 to 500 ft
< 800m
< 200 ft
Symbols :   Thunderstorms  Fog  Heavy snow  Heavy precipitations  Wind > 20 kt
SIGMETs :     Misc.  Thunderstorms  Icing  Turbulence  Mountain Waves  Volcanic Ashes






- Airport Elevation : 3 ft
- IATA code : DHR


EHKD - Den Helder De Kooy

CURRENT METAR :
  • 031703Z AUTO 29011KT 250V330 9999 FEW029 07/01 Q1018 BLU

EXPIRED METARs :
  • 031655Z AUTO 29011KT 260V330 9999 NCD 08/01 Q1018 BLU 28010KT 9999 FEW030
  • 031625Z AUTO 30010KT 270V360 9999 FEW030 08/01 Q1018 BLU 28010KT 9999 FEW023
  • 031555Z AUTO 30010KT 260V340 9999 FEW029 08/01 Q1017 BLU 28010KT 9999 FEW023
  • 031538Z AUTO 29012KT 260V330 9999 SCT026 SCT029 08/02 Q1017 BLU 28010KT 9999 FEW023
  • 031528Z AUTO 30010KT 260V340 9999 SCT023 BKN026 BKN036 08/02 Q1017 WHT 28010KT 9999 FEW023
  • 031455Z AUTO 29012KT 260V330 9999 NCD 08/02 Q1017 BLU 28011KT 9999 FEW025
  • 031425Z AUTO 30012KT 240V340 9999 NCD 08/02 Q1017 BLU 28012KT 9999 FEW025

TAF TAF EHKD
Valid from the 03 at 17:00 until the 04 at 05:00 UTC


031639Z 0317/0405 29010KT 9999 FEW030
BECMG 0319/0321 21007KT



MET'MAP, your aeronautical weather chart ! - Copyright ORBIFLY December 2007 - Disclaimer

ORBIFLY MET'MAP TEAM :

Programming & Development : Alexandra Zaïnal
Concept & original design : Baudouin d'Aumeries
Assistance for programming : Marc-Olivier Méhu
Technical & hardware support : Manuel Goepfert

Contact : metmap@orbifly.com




SOURCES & CREDITS :

   NOAA